createdAt,value
2019-03-24T00:00:03.782Z,6.13
2019-03-24T00:02:31.929Z,5.33
2019-03-24T00:05:00.034Z,7.07
2019-03-24T00:07:28.173Z,6.10
2019-03-24T00:09:56.323Z,5.97
2019-03-24T00:12:24.515Z,5.73
2019-03-24T00:14:52.686Z,11.90
2019-03-24T00:17:20.865Z,7.17
2019-03-24T00:19:49.037Z,7.00
2019-03-24T00:22:17.203Z,6.47
2019-03-24T00:24:45.322Z,6.00
2019-03-24T00:27:13.448Z,12.47
2019-03-24T00:29:41.588Z,8.10
2019-03-24T00:32:09.814Z,6.50
2019-03-24T00:34:38.023Z,7.57
2019-03-24T00:37:06.167Z,6.80
2019-03-24T00:39:34.298Z,6.77
2019-03-24T00:42:02.426Z,10.10
2019-03-24T00:44:30.554Z,5.73
2019-03-24T00:46:58.688Z,5.63
2019-03-24T00:49:26.922Z,5.93
2019-03-24T00:51:55.054Z,6.60
2019-03-24T00:54:23.270Z,5.50
2019-03-24T00:56:51.417Z,5.50
2019-03-24T00:59:19.528Z,5.93
2019-03-24T01:01:47.735Z,5.60
2019-03-24T01:04:15.878Z,5.83
2019-03-24T01:06:44.139Z,5.80
2019-03-24T01:09:12.330Z,5.65
2019-03-24T01:11:40.456Z,5.07
2019-03-24T01:14:08.655Z,5.70
2019-03-24T01:16:36.780Z,5.17
2019-03-24T01:19:04.999Z,5.53
2019-03-24T01:21:33.129Z,5.10
2019-03-24T01:24:01.264Z,5.40
2019-03-24T01:26:29.462Z,5.00
2019-03-24T01:28:57.578Z,5.50
2019-03-24T01:31:25.755Z,5.47
2019-03-24T01:33:53.862Z,5.53
2019-03-24T01:36:21.988Z,5.77
2019-03-24T01:38:50.155Z,5.90
2019-03-24T01:41:18.281Z,5.57
2019-03-24T01:43:46.429Z,6.07
2019-03-24T01:46:14.564Z,6.40
2019-03-24T01:48:42.791Z,5.90
2019-03-24T01:51:10.994Z,6.97
2019-03-24T01:53:39.202Z,6.03
2019-03-24T01:56:07.365Z,6.40
2019-03-24T01:58:35.556Z,6.25
2019-03-24T02:01:03.876Z,6.20
2019-03-24T02:03:32.004Z,6.97
2019-03-24T02:06:00.157Z,6.90
2019-03-24T02:08:28.350Z,7.13
2019-03-24T02:10:56.557Z,7.33
2019-03-24T02:13:24.732Z,7.63
2019-03-24T02:15:52.876Z,6.60
2019-03-24T02:18:21.000Z,6.40
2019-03-24T02:20:49.173Z,7.45
2019-03-24T02:23:17.294Z,8.33
2019-03-24T02:25:45.463Z,7.43
2019-03-24T02:28:13.636Z,8.67
2019-03-24T02:30:41.758Z,7.60
2019-03-24T02:33:09.968Z,8.67
2019-03-24T02:35:38.177Z,8.63
2019-03-24T02:38:07.141Z,8.03
2019-03-24T02:40:35.305Z,7.33
2019-03-24T02:43:03.518Z,8.57
2019-03-24T02:45:31.677Z,7.67
2019-03-24T02:47:59.828Z,7.83
2019-03-24T02:50:28.005Z,7.70
2019-03-24T02:52:56.140Z,7.70
2019-03-24T02:55:24.282Z,7.70
2019-03-24T02:57:52.405Z,9.07
2019-03-24T03:00:20.712Z,8.60
2019-03-24T03:02:48.846Z,7.53
2019-03-24T03:05:17.709Z,7.65
2019-03-24T03:07:45.919Z,8.47
2019-03-24T03:10:14.432Z,7.47
2019-03-24T03:12:42.611Z,7.65
2019-03-24T03:15:11.000Z,7.30
2019-03-24T03:17:39.185Z,8.00
2019-03-24T03:20:07.886Z,7.60
2019-03-24T03:22:35.994Z,7.40
2019-03-24T03:25:07.577Z,6.78
2019-03-24T03:27:35.758Z,7.50
2019-03-24T03:30:05.450Z,6.40
2019-03-24T03:32:33.560Z,6.97
2019-03-24T03:35:01.703Z,5.53
2019-03-24T03:37:29.919Z,6.30
2019-03-24T03:39:58.695Z,6.65
2019-03-24T03:42:26.975Z,6.10
2019-03-24T03:44:55.102Z,7.23
2019-03-24T03:47:23.265Z,6.47
2019-03-24T03:49:51.375Z,7.07
2019-03-24T03:52:19.518Z,7.70
2019-03-24T03:54:47.663Z,7.80
2019-03-24T03:57:16.252Z,6.95
2019-03-24T03:59:44.393Z,6.27
2019-03-24T04:02:12.579Z,6.53
2019-03-24T04:04:40.777Z,7.13
2019-03-24T04:07:08.931Z,6.27
2019-03-24T04:09:37.117Z,5.60
2019-03-24T04:12:05.317Z,4.73
2019-03-24T04:14:33.508Z,5.70
2019-03-24T04:17:07.705Z,5.95
2019-03-24T04:19:31.472Z,5.13
2019-03-24T04:21:59.593Z,5.40
2019-03-24T04:24:27.716Z,5.97
2019-03-24T04:26:56.239Z,5.53
2019-03-24T04:29:24.431Z,5.13
2019-03-24T04:31:52.556Z,5.27
2019-03-24T04:34:20.686Z,5.75
2019-03-24T04:36:48.917Z,5.90
2019-03-24T04:39:17.085Z,5.53
2019-03-24T04:41:45.212Z,5.63
2019-03-24T04:44:13.639Z,5.83
2019-03-24T04:46:41.766Z,6.97
2019-03-24T04:49:09.880Z,5.57
2019-03-24T04:51:38.006Z,5.23
2019-03-24T04:54:06.235Z,5.80
2019-03-24T04:56:34.389Z,5.67
2019-03-24T04:59:02.619Z,6.47
2019-03-24T05:01:31.084Z,5.50
2019-03-24T05:04:00.020Z,5.37
2019-03-24T05:06:28.253Z,5.12
2019-03-24T05:08:56.633Z,4.90
2019-03-24T05:11:24.807Z,5.27
2019-03-24T05:13:52.974Z,4.20
2019-03-24T05:16:21.112Z,5.00
2019-03-24T05:18:49.226Z,4.33
2019-03-24T05:21:17.398Z,4.40
2019-03-24T05:23:46.186Z,4.50
2019-03-24T05:26:14.335Z,5.20
2019-03-24T05:28:42.485Z,4.97
2019-03-24T05:31:10.614Z,5.07
2019-03-24T05:33:38.732Z,5.57
2019-03-24T05:36:11.833Z,4.70
2019-03-24T05:38:39.972Z,5.10
2019-03-24T05:41:08.129Z,4.83
2019-03-24T05:43:36.292Z,4.97
2019-03-24T05:46:04.570Z,6.23
2019-03-24T05:48:32.737Z,4.93
2019-03-24T05:51:00.922Z,5.10
2019-03-24T05:53:31.709Z,6.57
2019-03-24T05:56:03.041Z,7.33
2019-03-24T05:58:31.183Z,5.50
2019-03-24T06:00:59.310Z,5.40
2019-03-24T06:03:27.432Z,5.30
2019-03-24T06:05:55.580Z,5.33
2019-03-24T06:08:23.717Z,5.57
2019-03-24T06:10:51.944Z,5.47
2019-03-24T06:13:20.095Z,5.27
2019-03-24T06:15:48.241Z,5.07
2019-03-24T06:18:16.348Z,5.00
2019-03-24T06:20:44.563Z,5.10
2019-03-24T06:23:12.787Z,5.77
2019-03-24T06:25:40.954Z,5.43
2019-03-24T06:28:09.126Z,5.77
2019-03-24T06:30:37.265Z,5.37
2019-03-24T06:33:05.513Z,5.23
2019-03-24T06:35:34.137Z,5.72
2019-03-24T06:38:02.317Z,6.17
2019-03-24T06:40:30.474Z,5.03
2019-03-24T06:42:58.594Z,5.43
2019-03-24T06:45:28.696Z,5.20
2019-03-24T06:47:58.224Z,5.77
2019-03-24T06:50:26.615Z,5.90
2019-03-24T06:52:54.915Z,5.40
2019-03-24T06:55:23.029Z,4.83
2019-03-24T06:57:51.245Z,5.53
2019-03-24T07:00:19.432Z,5.23
2019-03-24T07:02:47.558Z,5.93
2019-03-24T07:05:15.950Z,5.63
2019-03-24T07:07:44.755Z,5.03
2019-03-24T07:10:12.990Z,6.17
2019-03-24T07:12:41.172Z,5.60
2019-03-24T07:15:09.592Z,6.47
2019-03-24T07:17:37.813Z,6.43
2019-03-24T07:20:06.365Z,5.33
2019-03-24T07:22:34.479Z,5.47
2019-03-24T07:25:02.756Z,6.73
2019-03-24T07:27:30.894Z,5.90
2019-03-24T07:29:59.184Z,5.67
2019-03-24T07:32:27.319Z,6.10
2019-03-24T07:34:55.458Z,6.03
2019-03-24T07:37:23.597Z,5.80
2019-03-24T07:39:51.715Z,6.50
2019-03-24T07:42:19.847Z,6.80
2019-03-24T07:44:47.956Z,5.97
2019-03-24T07:47:16.158Z,6.17
2019-03-24T07:49:44.337Z,5.90
2019-03-24T07:52:12.442Z,5.60
2019-03-24T07:54:40.566Z,6.77
2019-03-24T07:57:09.277Z,6.67
2019-03-24T07:59:37.465Z,7.63
2019-03-24T08:02:05.701Z,7.07
2019-03-24T08:04:33.877Z,7.97
2019-03-24T08:07:02.042Z,6.00
2019-03-24T08:09:30.162Z,6.67
2019-03-24T08:11:58.289Z,5.33
2019-03-24T08:14:26.439Z,6.67
2019-03-24T08:16:54.655Z,6.63
2019-03-24T08:19:22.799Z,7.27
2019-03-24T08:21:50.945Z,7.80
2019-03-24T08:24:19.062Z,6.83
2019-03-24T08:26:48.050Z,6.67
2019-03-24T08:29:16.198Z,8.40
2019-03-24T08:31:44.365Z,8.87
2019-03-24T08:34:27.501Z,8.03
2019-03-24T08:36:55.712Z,8.80
2019-03-24T08:39:23.910Z,10.00
2019-03-24T08:41:52.143Z,10.33
2019-03-24T08:44:20.933Z,9.13
2019-03-24T08:46:49.121Z,8.67
2019-03-24T08:49:17.286Z,8.53
2019-03-24T08:51:45.418Z,8.17
2019-03-24T08:54:13.564Z,7.70
2019-03-24T08:56:41.793Z,7.17
2019-03-24T08:59:09.912Z,8.57
2019-03-24T09:01:38.152Z,7.30
2019-03-24T09:04:06.368Z,7.73
2019-03-24T09:06:34.641Z,7.70
2019-03-24T09:09:02.972Z,6.83
2019-03-24T09:11:31.664Z,8.77
2019-03-24T09:13:59.890Z,6.17
2019-03-24T09:16:28.017Z,7.27
2019-03-24T09:18:57.473Z,5.72
2019-03-24T09:21:25.710Z,6.00
2019-03-24T09:23:53.893Z,5.63
2019-03-24T09:26:22.109Z,6.57
2019-03-24T09:28:50.234Z,7.00
2019-03-24T09:31:18.362Z,5.58
2019-03-24T09:33:46.555Z,9.20
2019-03-24T09:36:14.892Z,5.77
2019-03-24T09:38:43.028Z,6.03
2019-03-24T09:41:11.146Z,5.73
2019-03-24T09:43:39.431Z,6.13
2019-03-24T09:46:07.564Z,7.30
2019-03-24T09:48:36.451Z,4.57
2019-03-24T09:51:04.733Z,6.42
2019-03-24T09:53:32.918Z,6.77
2019-03-24T09:56:01.080Z,5.97
2019-03-24T09:58:33.895Z,8.03
2019-03-24T10:01:02.038Z,6.93
2019-03-24T10:03:30.186Z,7.17
2019-03-24T10:05:58.325Z,6.90
2019-03-24T10:08:26.557Z,5.23
2019-03-24T10:10:54.750Z,6.30
2019-03-24T10:13:22.875Z,5.83
2019-03-24T10:15:51.043Z,5.47
2019-03-24T10:18:19.232Z,5.87
2019-03-24T10:20:47.367Z,5.77
2019-03-24T10:23:15.536Z,5.73
2019-03-24T10:25:43.764Z,9.77
2019-03-24T10:28:11.903Z,7.60
2019-03-24T10:30:40.127Z,8.53
2019-03-24T10:33:08.302Z,8.52
2019-03-24T10:35:36.605Z,10.67
2019-03-24T10:38:04.833Z,7.07
2019-03-24T10:40:33.108Z,6.37
2019-03-24T10:43:01.339Z,11.23
2019-03-24T10:45:29.448Z,7.63
2019-03-24T10:47:57.604Z,7.77
2019-03-24T10:50:25.765Z,8.83
2019-03-24T10:52:53.968Z,8.90
2019-03-24T10:55:22.172Z,8.37
2019-03-24T10:57:50.296Z,8.77
2019-03-24T11:00:19.984Z,9.70
2019-03-24T11:02:48.167Z,12.30
2019-03-24T11:05:16.370Z,14.40
2019-03-24T11:07:44.487Z,11.67
2019-03-24T11:10:13.085Z,10.77
2019-03-24T11:12:42.117Z,9.77
2019-03-24T11:15:10.413Z,8.33
2019-03-24T11:17:38.712Z,9.03
2019-03-24T11:20:07.235Z,6.15
2019-03-24T11:22:35.369Z,7.33
2019-03-24T11:25:04.584Z,9.68
2019-03-24T11:27:32.717Z,9.83
2019-03-24T11:30:00.861Z,7.20
2019-03-24T11:32:29.056Z,8.07
2019-03-24T11:34:57.272Z,6.13
2019-03-24T11:37:25.400Z,6.05
2019-03-24T11:39:53.525Z,5.23
2019-03-24T11:42:21.723Z,5.50
2019-03-24T11:44:49.877Z,5.40
2019-03-24T11:47:26.231Z,5.20
2019-03-24T11:49:49.135Z,5.30
2019-03-24T11:52:17.458Z,6.33
2019-03-24T11:54:45.757Z,5.93
2019-03-24T11:57:13.905Z,5.27
2019-03-24T11:59:42.108Z,4.00
2019-03-24T12:02:10.226Z,4.37
2019-03-24T12:04:38.452Z,3.60
2019-03-24T12:07:06.716Z,2.83
2019-03-24T12:09:34.943Z,3.30
2019-03-24T12:12:03.738Z,3.65
2019-03-24T12:14:31.960Z,3.07
2019-03-24T12:17:00.091Z,2.47
2019-03-24T12:19:28.326Z,2.93
2019-03-24T12:22:10.770Z,3.67
2019-03-24T12:24:39.039Z,3.40
2019-03-24T12:27:07.266Z,3.50
2019-03-24T12:29:35.512Z,2.72
2019-03-24T12:32:09.353Z,2.37
2019-03-24T12:34:37.513Z,2.50
2019-03-24T12:37:06.365Z,2.97
2019-03-24T12:39:34.501Z,3.30
2019-03-24T12:42:02.642Z,2.93
2019-03-24T12:44:30.839Z,2.30
2019-03-24T12:46:59.149Z,3.53
2019-03-24T12:49:27.294Z,2.83
2019-03-24T12:51:55.540Z,3.17
2019-03-24T12:54:25.444Z,4.37
2019-03-24T12:56:53.582Z,3.30
2019-03-24T12:59:21.717Z,3.10
2019-03-24T13:01:49.887Z,2.97
2019-03-24T13:04:18.099Z,3.07
2019-03-24T13:06:46.334Z,21.27
2019-03-24T13:09:14.515Z,3.47
2019-03-24T13:11:42.722Z,4.03
2019-03-24T13:14:10.908Z,3.13
2019-03-24T13:16:39.044Z,3.30
2019-03-24T13:19:07.289Z,4.23
2019-03-24T13:21:37.505Z,4.40
2019-03-24T13:24:05.621Z,4.13
2019-03-24T13:26:33.781Z,3.50
2019-03-24T13:29:02.050Z,4.43
2019-03-24T13:31:30.226Z,4.92
2019-03-24T13:33:58.410Z,3.50
2019-03-24T13:36:27.308Z,4.00
2019-03-24T13:38:55.414Z,5.67
2019-03-24T13:41:23.541Z,3.30
2019-03-24T13:43:51.678Z,2.30
2019-03-24T13:46:19.817Z,3.00
2019-03-24T13:48:47.951Z,2.83
2019-03-24T13:51:16.094Z,3.37
2019-03-24T13:53:44.995Z,3.50
2019-03-24T13:56:13.222Z,3.15
2019-03-24T13:58:41.462Z,3.98
2019-03-24T14:01:10.027Z,2.47
2019-03-24T14:03:38.215Z,4.30
2019-03-24T14:06:06.490Z,5.30
2019-03-24T14:08:34.760Z,2.17
2019-03-24T14:11:02.947Z,2.10
2019-03-24T14:13:31.202Z,4.55
2019-03-24T14:15:59.328Z,4.67
2019-03-24T14:18:27.867Z,3.90
2019-03-24T14:20:56.078Z,2.95
2019-03-24T14:23:24.977Z,3.12
2019-03-24T14:25:53.158Z,4.20
2019-03-24T14:28:21.332Z,3.83
2019-03-24T14:30:49.775Z,2.90
2019-03-24T14:33:18.039Z,4.35
2019-03-24T14:35:46.243Z,3.77
2019-03-24T14:38:20.298Z,2.00
2019-03-24T14:40:48.512Z,2.42
2019-03-24T14:43:16.794Z,3.17
2019-03-24T14:45:45.737Z,5.03
2019-03-24T14:48:13.976Z,4.43
2019-03-24T14:50:42.167Z,3.25
2019-03-24T14:53:10.332Z,3.07
2019-03-24T14:55:38.449Z,2.95
2019-03-24T14:58:07.407Z,2.22
2019-03-24T15:00:36.495Z,2.15
2019-03-24T15:03:04.733Z,2.47
2019-03-24T15:05:33.037Z,2.02
2019-03-24T15:08:01.956Z,3.05
2019-03-24T15:10:30.702Z,2.30
2019-03-24T15:12:58.923Z,3.10
2019-03-24T15:15:27.096Z,2.50
2019-03-24T15:17:55.282Z,2.47
2019-03-24T15:20:23.418Z,2.43
2019-03-24T15:22:51.550Z,2.00
2019-03-24T15:25:20.750Z,1.80
2019-03-24T15:27:49.012Z,6.23
2019-03-24T15:30:17.231Z,2.20
2019-03-24T15:32:45.414Z,2.03
2019-03-24T15:35:13.547Z,1.80
2019-03-24T15:37:41.698Z,2.17
2019-03-24T15:40:10.143Z,3.53
2019-03-24T15:42:38.254Z,2.70
2019-03-24T15:45:09.562Z,2.20
2019-03-24T15:47:37.719Z,2.83
2019-03-24T15:50:06.520Z,2.67
2019-03-24T15:52:34.652Z,2.58
2019-03-24T15:55:03.378Z,2.43
2019-03-24T15:57:32.274Z,2.07
2019-03-24T16:00:00.459Z,2.17
2019-03-24T16:02:28.715Z,2.10
2019-03-24T16:04:56.845Z,3.00
2019-03-24T16:07:24.964Z,2.67
2019-03-24T16:09:53.200Z,2.70
2019-03-24T16:12:21.323Z,2.83
2019-03-24T16:14:49.602Z,3.57
2019-03-24T16:17:17.720Z,3.67
2019-03-24T16:19:45.898Z,3.00
2019-03-24T16:22:14.016Z,2.80
2019-03-24T16:24:42.200Z,6.30
2019-03-24T16:27:10.326Z,5.03
2019-03-24T16:29:38.485Z,3.20
2019-03-24T16:32:06.620Z,4.73
2019-03-24T16:34:34.761Z,6.47
2019-03-24T16:37:02.872Z,3.13
2019-03-24T16:39:31.022Z,2.80
2019-03-24T16:41:59.323Z,3.80
2019-03-24T16:44:27.472Z,2.93
2019-03-24T16:46:55.610Z,4.55
2019-03-24T16:49:23.848Z,3.33
2019-03-24T16:51:52.917Z,3.10
2019-03-24T16:54:21.074Z,2.73
2019-03-24T16:56:49.323Z,11.63
2019-03-24T16:59:17.454Z,3.47
2019-03-24T17:01:45.569Z,3.03
2019-03-24T17:04:13.693Z,2.97
2019-03-24T17:06:41.827Z,2.95
2019-03-24T17:09:10.071Z,2.47
2019-03-24T17:11:38.286Z,3.43
2019-03-24T17:14:06.489Z,4.07
2019-03-24T17:16:35.170Z,3.50
2019-03-24T17:19:03.448Z,3.07
2019-03-24T17:21:31.652Z,3.23
2019-03-24T17:23:59.857Z,8.65
2019-03-24T17:26:28.070Z,3.52
2019-03-24T17:28:56.316Z,5.77
2019-03-24T17:31:24.563Z,3.50
2019-03-24T17:33:52.695Z,3.47
2019-03-24T17:36:20.896Z,2.50
2019-03-24T17:38:49.062Z,2.40
2019-03-24T17:41:17.186Z,7.73
2019-03-24T17:43:45.315Z,2.93
2019-03-24T17:46:14.242Z,2.30
2019-03-24T17:48:42.437Z,2.83
2019-03-24T17:51:10.619Z,2.00
2019-03-24T17:53:38.763Z,2.53
2019-03-24T17:56:06.970Z,2.50
2019-03-24T17:58:35.087Z,2.73
2019-03-24T18:01:03.203Z,2.20
2019-03-24T18:03:31.591Z,2.60
2019-03-24T18:05:59.796Z,2.47
2019-03-24T18:08:27.983Z,2.97
2019-03-24T18:10:56.111Z,2.50
2019-03-24T18:13:24.306Z,2.30
2019-03-24T18:15:53.133Z,2.47
2019-03-24T18:18:21.346Z,2.23
2019-03-24T18:20:49.545Z,4.60
2019-03-24T18:23:17.761Z,3.00
2019-03-24T18:25:45.882Z,1.70
2019-03-24T18:30:47.720Z,1.93
2019-03-24T18:33:16.303Z,2.67
2019-03-24T18:35:44.440Z,2.95
2019-03-24T18:38:12.838Z,2.30
2019-03-24T18:40:41.061Z,5.00
2019-03-24T18:43:09.225Z,2.90
2019-03-24T18:45:37.481Z,2.70
2019-03-24T18:48:05.842Z,3.10
2019-03-24T18:50:34.002Z,2.70
2019-03-24T18:53:02.134Z,3.00
2019-03-24T18:55:30.269Z,2.57
2019-03-24T18:57:58.957Z,2.67
2019-03-24T19:00:27.106Z,3.17
2019-03-24T19:02:55.302Z,3.67
2019-03-24T19:05:23.453Z,3.40
2019-03-24T19:07:51.655Z,3.20
2019-03-24T19:10:19.882Z,3.17
2019-03-24T19:12:48.764Z,3.50
2019-03-24T19:15:18.017Z,3.10
2019-03-24T19:17:46.256Z,2.83
2019-03-24T19:20:14.499Z,2.87
2019-03-24T19:22:42.707Z,3.43
2019-03-24T19:25:11.328Z,2.47
2019-03-24T19:27:39.549Z,2.63
2019-03-24T19:30:09.238Z,3.07
2019-03-24T19:32:38.192Z,2.77
2019-03-24T19:35:06.685Z,3.00
2019-03-24T19:37:35.274Z,2.30
2019-03-24T19:40:05.167Z,2.73
2019-03-24T19:42:34.058Z,2.83
2019-03-24T19:45:02.237Z,2.80
2019-03-24T19:47:30.744Z,2.50
2019-03-24T19:49:58.915Z,2.45
2019-03-24T19:52:27.073Z,3.10
2019-03-24T19:54:55.351Z,2.63
2019-03-24T19:57:23.627Z,2.50
2019-03-24T19:59:51.871Z,2.97
2019-03-24T20:02:20.075Z,3.60
2019-03-24T20:04:48.294Z,2.30
2019-03-24T20:07:16.433Z,3.03
2019-03-24T20:09:44.633Z,2.70
2019-03-24T20:12:12.841Z,3.63
2019-03-24T20:14:41.002Z,3.97
2019-03-24T20:17:09.141Z,2.93
2019-03-24T20:19:37.336Z,3.20
2019-03-24T20:22:05.585Z,3.53
2019-03-24T20:24:33.726Z,2.93
2019-03-24T20:27:01.992Z,3.20
2019-03-24T20:29:30.214Z,2.95
2019-03-24T20:31:58.433Z,3.90
2019-03-24T20:34:26.567Z,3.10
2019-03-24T20:36:54.815Z,2.93
2019-03-24T20:39:23.013Z,2.40
2019-03-24T20:41:51.184Z,3.30
2019-03-24T20:44:19.312Z,3.70
2019-03-24T20:46:47.501Z,9.97
2019-03-24T20:49:15.681Z,5.43
2019-03-24T20:51:43.841Z,3.23
2019-03-24T20:54:12.040Z,3.90
2019-03-24T20:56:40.193Z,4.50
2019-03-24T20:59:08.335Z,3.65
2019-03-24T21:01:36.465Z,3.87
2019-03-24T21:04:04.667Z,3.70
2019-03-24T21:06:32.964Z,3.80
2019-03-24T21:09:01.169Z,3.50
2019-03-24T21:11:29.419Z,5.40
2019-03-24T21:13:57.631Z,5.57
2019-03-24T21:16:25.817Z,4.07
2019-03-24T21:18:54.067Z,3.70
2019-03-24T21:21:22.260Z,4.70
2019-03-24T21:23:50.501Z,3.80
2019-03-24T21:26:18.705Z,3.80
2019-03-24T21:28:46.942Z,3.67
2019-03-24T21:31:15.073Z,6.77
2019-03-24T21:33:43.283Z,3.20
2019-03-24T21:36:11.426Z,3.63
2019-03-24T21:38:39.627Z,4.07
2019-03-24T21:41:07.942Z,3.75
2019-03-24T21:43:36.115Z,4.10
2019-03-24T21:46:04.776Z,3.37
2019-03-24T21:48:32.997Z,3.70
2019-03-24T21:51:01.125Z,3.63
2019-03-24T21:53:40.118Z,3.67
2019-03-24T21:55:59.253Z,4.20
2019-03-24T21:58:27.428Z,3.83
2019-03-24T22:00:55.553Z,4.12
2019-03-24T22:03:23.692Z,4.53
2019-03-24T22:05:51.864Z,4.47
2019-03-24T22:08:19.983Z,3.43
2019-03-24T22:10:48.203Z,3.83
2019-03-24T22:13:16.392Z,4.50
2019-03-24T22:15:45.252Z,3.70
2019-03-24T22:18:13.563Z,7.87
2019-03-24T22:20:48.788Z,5.20
2019-03-24T22:23:11.751Z,3.97
2019-03-24T22:25:40.187Z,3.23
2019-03-24T22:28:08.427Z,5.10
2019-03-24T22:30:36.721Z,4.30
2019-03-24T22:33:05.642Z,3.93
2019-03-24T22:35:33.822Z,3.90
2019-03-24T22:38:01.941Z,4.53
2019-03-24T22:40:30.088Z,4.10
2019-03-24T22:42:58.315Z,3.90
2019-03-24T22:45:26.511Z,3.33
2019-03-24T22:47:54.655Z,3.95
2019-03-24T22:50:22.770Z,3.63
2019-03-24T22:52:50.931Z,3.77
2019-03-24T22:55:19.131Z,4.13
2019-03-24T22:57:47.273Z,4.70
2019-03-24T23:00:18.171Z,4.25
2019-03-24T23:02:46.442Z,4.33
2019-03-24T23:05:14.624Z,5.10
2019-03-24T23:07:42.826Z,4.10
2019-03-24T23:10:11.099Z,4.43
2019-03-24T23:12:39.265Z,5.23
2019-03-24T23:15:07.443Z,4.67
2019-03-24T23:17:35.645Z,4.90
2019-03-24T23:20:04.642Z,6.13
2019-03-24T23:22:33.212Z,6.70
2019-03-24T23:25:01.364Z,6.13
2019-03-24T23:27:29.480Z,6.00
2019-03-24T23:29:58.338Z,6.30
2019-03-24T23:32:26.483Z,5.10
2019-03-24T23:34:54.606Z,6.17
2019-03-24T23:37:22.631Z,5.17
2019-03-24T23:39:50.823Z,5.67
2019-03-24T23:42:19.035Z,5.77
2019-03-24T23:44:47.234Z,5.47
2019-03-24T23:47:15.435Z,4.77
2019-03-24T23:49:43.557Z,4.83
2019-03-24T23:52:11.675Z,5.10
2019-03-24T23:54:39.791Z,5.47
2019-03-24T23:59:41.355Z,4.55
